Date,TemperatureHighF,TemperatureAvgF,TemperatureLowF,DewpointHighF,DewpointAvgF,DewpointLowF,HumidityHigh,HumidityAvg,HumidityLow,PressureMaxIn,PressureMinIn,WindSpeedMaxMPH,WindSpeedAvgMPH,GustSpeedMaxMPH,PrecipitationSumIn
2013-1-1,58.4,51.2,45.6,46.2,37.1,23.2,70,60,32,30.29,30.14,4,0,6,0.00
2013-1-2,63.7,52.7,43.0,49.2,34.9,21.0,70,51,32,30.18,30.08,7,1,10,0.00
2013-1-3,61.3,52.2,43.7,52.2,38.5,26.8,77,60,44,30.23,30.09,5,1,10,0.00
2013-1-4,61.1,52.5,44.1,45.5,30.9,20.6,66,44,32,30.33,30.22,5,1,7,0.00
2013-1-5,61.3,51.3,44.2,49.5,36.8,23.3,76,59,40,30.34,30.23,6,1,8,0.00
2013-1-6,60.6,51.6,46.6,50.8,45.8,37.3,94,81,67,30.26,30.07,8,1,12,0.38
2013-1-7,61.1,51.8,44.2,49.6,44.4,39.7,95,77,55,30.15,30.01,11,2,15,0.00
2013-1-8,63.8,53.4,45.5,50.2,44.4,36.2,86,72,55,30.16,30.07,2,0,3,0.00
2013-1-9,62.5,54.8,47.7,54.9,48.7,41.2,90,80,63,30.18,30.07,3,0,6,0.00
2013-1-10,57.2,53.7,47.9,51.3,43.7,28.7,91,69,47,30.15,29.99,21,6,25,0.01
2013-1-11,55.3,48.2,38.8,38.2,31.1,24.1,65,52,40,30.26,30.12,11,3,19,0.00
2013-1-12,58.1,46.9,38.6,36.8,30.0,23.9,64,52,37,30.22,30.13,2,0,5,0.00
2013-1-13,58.5,47.4,39.6,40.2,30.1,22.4,67,52,30,30.22,30.11,6,1,9,0.00
2013-1-14,58.1,47.3,38.5,33.1,16.9,3.9,57,31,11,30.39,30.18,11,2,15,0.00
2013-1-15,56.6,47.7,39.7,39.4,26.1,12.1,62,44,26,30.51,30.38,9,2,12,0.00
2013-1-16,58.4,50.6,42.3,50.1,38.5,27.1,78,64,45,30.41,30.17,7,1,8,0.00
2013-1-17,67.2,55.5,46.3,53.2,38.1,29.0,72,53,35,30.21,30.08,6,1,8,0.00
2013-1-18,66.5,57.1,48.4,49.5,37.0,26.7,75,48,28,30.17,30.08,5,0,9,0.00
2013-1-19,65.8,57.0,48.2,51.9,34.4,25.8,68,43,31,30.22,30.10,5,1,6,0.00
2013-1-20,64.0,56.2,48.0,50.7,36.0,22.5,66,47,30,30.17,30.03,4,1,6,0.00
2013-1-21,66.7,56.2,47.5,53.7,37.1,26.0,72,49,29,30.13,30.02,2,0,4,0.00
2013-1-22,65.6,57.7,48.5,47.5,32.9,20.7,66,40,23,30.13,30.04,3,0,6,0.00
2013-1-23,74.8,63.0,55.7,51.7,39.1,25.6,75,43,25,30.17,30.04,6,1,10,0.00
2013-1-24,64.5,59.6,55.1,56.5,53.8,50.4,90,81,74,30.23,30.13,4,0,7,0.19
2013-1-25,64.2,60.0,58.2,60.9,57.8,55.9,96,93,85,30.15,29.98,5,0,8,0.23
2013-1-26,60.1,57.8,55.2,59.2,56.9,54.4,98,97,95,30.06,29.93,5,0,6,0.03
2013-1-27,59.1,55.2,52.6,54.6,50.4,45.9,98,84,71,30.09,30.02,5,2,9,0.02
2013-1-28,60.3,51.6,43.9,47.8,42.5,38.0,91,72,52,30.24,30.06,11,3,16,0.00
2013-1-29,61.2,50.5,42.9,48.5,41.1,35.5,78,70,55,30.30,30.21,4,0,5,0.00
2013-1-30,60.2,53.3,46.3,52.9,45.1,39.8,85,74,60,30.39,30.25,5,1,7,0.00
2013-1-31,62.8,55.1,47.3,54.0,47.0,40.1,82,74,63,30.29,30.13,7,1,8,0.00
2013-2-1,63.8,56.8,50.5,57.5,49.7,40.8,88,77,61,30.21,30.13,2,0,4,0.00
2013-2-2,65.4,58.4,53.6,56.5,51.2,45.5,87,77,53,30.23,30.12,5,1,7,0.00
2013-2-3,63.5,59.4,53.4,56.8,52.5,46.6,88,78,59,30.17,30.05,3,0,6,0.00
2013-2-4,58.3,52.9,47.5,52.8,49.7,44.1,95,89,81,30.14,30.03,6,1,9,0.00
2013-2-5,55.5,53.0,49.4,51.2,49.9,47.8,95,89,82,30.17,30.05,2,0,4,0.00
2013-2-6,65.4,56.1,50.4,52.9,49.5,47.3,89,79,64,30.16,30.05,4,0,6,0.00
2013-2-7,61.7,53.9,46.9,53.9,48.3,43.8,90,81,72,30.19,30.06,4,1,8,0.00
2013-2-8,54.9,50.5,42.9,49.2,44.2,40.2,90,79,69,30.08,29.96,12,3,23,0.27
2013-2-9,58.6,48.5,39.7,46.2,41.4,37.0,91,77,60,30.16,30.00,3,0,5,0.01
2013-2-10,58.6,50.2,42.4,46.3,42.2,35.9,82,74,60,30.17,30.07,2,0,5,0.00
2013-2-11,59.8,50.8,42.9,50.4,43.8,38.0,83,77,61,30.29,30.11,7,1,12,0.00
2013-2-12,62.6,51.5,43.1,50.5,39.7,28.8,79,64,49,30.40,30.29,4,0,8,0.00
2013-2-13,63.0,52.2,44.0,53.8,44.2,34.6,85,74,55,30.32,30.18,7,1,8,0.00
2013-2-14,60.8,52.8,44.7,54.7,47.8,39.4,89,83,73,30.25,30.10,8,2,10,0.00
2013-2-15,69.2,60.0,48.9,53.7,41.2,26.2,91,53,23,30.21,30.14,5,1,6,0.00
2013-2-16,67.3,59.9,52.7,52.0,38.1,24.7,65,45,24,30.17,30.01,5,1,7,0.00
2013-2-17,60.5,55.3,49.5,52.0,45.3,29.5,85,70,42,30.08,29.99,5,2,7,0.00
2013-2-18,59.4,54.8,51.8,50.0,46.8,43.3,80,74,65,30.11,30.01,5,1,9,0.00
2013-2-19,55.6,52.7,49.4,49.1,44.4,40.6,89,74,64,30.05,29.83,5,2,12,0.03
2013-2-20,59.6,52.5,44.6,45.4,40.4,32.4,79,64,48,30.05,29.77,15,5,26,0.01
2013-2-21,59.2,52.1,47.1,48.8,43.6,39.2,81,73,60,30.15,30.02,6,2,8,0.01
2013-2-22,64.2,52.3,43.5,51.8,43.7,36.5,83,73,63,30.25,30.15,2,0,4,0.01
2013-2-23,63.2,52.8,44.2,51.7,44.0,34.9,86,72,51,30.22,29.98,1,0,4,0.00
2013-2-24,56.0,48.6,45.8,49.7,44.7,42.8,90,86,78,30.15,30.04,0,0,3,0.00
2013-2-25,62.3,53.3,45.0,50.8,37.3,19.6,82,57,27,30.26,30.12,4,1,8,0.00
2013-2-26,64.7,52.9,43.6,52.2,43.6,31.3,88,71,55,30.15,30.03,4,1,8,0.00
2013-2-27,67.0,57.4,49.5,50.6,37.5,20.5,75,49,24,30.30,30.16,4,1,7,0.00
2013-2-28,67.6,57.9,48.4,53.6,36.6,23.2,76,46,26,30.34,30.26,4,1,7,0.00
2013-3-1,72.6,62.6,52.6,49.6,38.1,26.1,56,41,21,30.33,30.17,4,1,7,0.00
2013-3-2,69.5,62.1,55.3,53.5,43.6,30.4,77,52,33,30.22,30.10,3,1,6,0.00
2013-3-3,65.0,57.5,52.0,56.9,50.2,36.2,89,77,47,30.15,30.03,3,1,7,0.00
2013-3-4,66.9,58.0,52.3,54.7,51.6,48.2,87,80,64,30.14,30.07,3,1,6,0.00
2013-3-5,60.1,55.8,53.6,53.6,51.2,48.9,90,85,79,30.18,30.09,4,1,6,0.00
2013-3-6,65.2,56.7,51.2,51.3,48.1,44.3,85,73,56,30.20,30.07,8,1,10,0.00
2013-3-7,57.7,54.4,51.7,52.5,50.1,45.3,94,86,76,30.07,29.92,5,1,6,0.07
2013-3-8,57.7,52.8,47.6,50.3,46.9,44.2,93,81,67,30.09,29.83,13,3,25,0.33
2013-3-9,60.1,55.0,50.7,49.6,47.3,44.2,84,75,66,30.26,30.09,13,3,19,0.00
2013-3-10,63.3,55.2,46.2,54.9,47.4,41.6,84,75,51,30.31,30.19,6,1,9,0.00
2013-3-11,65.6,55.8,48.5,56.4,47.8,35.3,94,75,58,30.23,30.09,5,1,10,0.00
2013-3-12,59.3,52.8,47.0,55.4,50.9,45.4,97,93,87,30.14,30.05,7,2,11,0.01
2013-3-13,56.8,52.8,47.9,54.5,51.4,46.8,97,95,91,30.17,30.08,6,1,10,0.00
2013-3-14,58.2,53.7,49.8,55.9,52.4,49.0,98,95,91,30.14,30.05,9,2,14,0.01
2013-3-15,56.8,53.7,51.8,54.5,52.2,50.6,97,95,91,30.10,30.00,2,0,5,0.00
2013-3-16,61.8,55.0,51.5,53.5,51.5,50.1,95,88,74,30.03,29.95,3,1,5,0.00
2013-3-17,66.7,57.6,54.2,55.4,52.2,50.6,90,83,67,30.05,29.98,4,1,6,0.00
2013-3-18,64.1,57.6,54.9,52.9,51.8,50.2,88,81,67,30.13,30.03,5,1,8,0.00
2013-3-19,66.3,57.1,52.1,56.2,52.5,49.2,90,85,69,30.17,30.09,5,1,8,0.00
2013-3-20,61.3,57.0,51.8,56.4,53.8,49.8,93,89,84,30.13,30.02,5,1,10,0.00
2013-3-21,67.0,58.1,53.2,58.8,54.1,50.7,94,87,75,30.02,29.86,3,1,5,0.00
2013-3-22,68.3,59.4,55.5,57.0,54.1,52.0,90,83,66,29.96,29.86,4,1,7,0.00
2013-3-23,67.8,58.8,52.6,56.0,52.6,48.5,88,80,66,30.06,29.95,3,0,6,0.00
2013-3-24,67.8,58.9,53.9,57.7,54.3,50.8,92,85,70,30.06,29.92,8,1,10,0.00
2013-3-25,67.3,59.1,54.4,59.1,55.1,51.8,93,87,74,30.02,29.93,4,0,6,0.00
2013-3-26,64.8,58.2,54.4,56.1,53.9,51.2,92,86,73,30.02,29.95,3,0,5,0.00
2013-3-27,62.6,58.2,56.2,55.0,52.6,50.9,87,82,75,30.09,29.97,4,1,7,0.00
2013-3-28,66.8,59.1,54.5,57.9,54.5,51.0,92,85,73,30.11,30.04,9,2,12,0.00
2013-3-29,62.7,58.4,56.7,56.2,55.0,54.1,93,88,79,30.15,30.09,4,1,8,0.00
2013-3-30,65.6,58.7,55.4,57.8,55.1,52.9,94,88,76,30.18,30.10,6,1,10,0.00
2013-3-31,63.8,59.0,53.7,58.4,55.1,51.0,91,87,76,30.17,30.10,7,2,12,0.00
2013-4-1,67.9,60.0,56.1,56.4,54.2,51.1,91,82,64,30.21,30.12,11,3,15,0.00
2013-4-2,67.7,59.4,54.8,56.2,54.4,51.6,91,84,65,30.14,30.03,3,1,6,0.00
2013-4-3,65.2,58.7,54.9,57.5,54.8,52.0,91,87,76,30.13,30.03,3,0,7,0.00
2013-4-4,65.5,59.8,56.5,58.1,55.8,53.9,92,87,77,30.14,30.05,9,2,11,0.00
2013-4-5,65.8,60.2,57.6,59.1,56.6,54.4,94,88,76,30.14,30.05,4,1,7,0.00
2013-4-6,68.5,61.9,58.0,59.6,56.6,54.5,90,83,71,30.12,30.00,3,1,6,0.00
2013-4-7,65.8,59.2,53.6,57.6,54.4,50.4,90,84,72,30.01,29.86,4,1,7,0.00
2013-4-8,61.9,58.9,54.9,55.6,52.2,48.5,89,79,68,29.86,29.74,13,5,21,0.00
2013-4-9,66.3,57.6,49.5,54.3,48.7,43.3,82,73,53,30.04,29.85,8,2,11,0.00
2013-4-10,67.5,59.1,50.1,57.5,49.5,39.5,77,71,59,30.12,30.03,4,1,6,0.00
2013-4-11,64.5,59.2,54.4,56.0,49.8,37.2,84,72,52,29.98,29.85,8,3,12,0.00
2013-4-12,66.5,59.0,57.5,56.0,53.0,51.0,89,81,69,29.93,29.82,6,2,10,0.00
2013-4-13,58.5,57.3,55.9,54.9,53.5,50.5,93,87,82,29.96,29.89,4,2,6,0.00
2013-4-14,59.7,56.0,54.2,54.2,51.5,49.9,94,85,79,29.94,29.88,4,2,7,0.00
2013-4-15,61.8,57.5,55.0,55.6,52.7,49.0,92,84,79,29.97,29.89,4,2,10,0.02
2013-4-16,64.0,56.5,53.0,50.4,47.9,46.0,80,73,55,30.02,29.92,12,3,13,0.01
2013-4-26,68.2,61.2,54.3,59.2,55.4,50.2,91,82,71,30.19,30.13,8,3,13,0.00
2013-4-27,68.5,60.6,55.6,59.9,56.6,52.7,93,87,73,30.19,30.03,5,1,9,0.00
2013-4-28,64.9,59.6,58.1,57.9,56.2,55.2,93,89,78,30.07,29.91,2,1,6,0.00
2013-4-29,65.3,59.5,57.1,58.3,55.9,54.1,94,88,78,29.95,29.83,3,2,7,0.00
2013-4-30,63.7,60.1,58.3,57.0,54.8,53.0,88,83,77,29.94,29.87,5,3,9,0.00
2013-5-1,69.9,63.0,58.4,60.6,57.7,55.5,92,83,70,30.12,29.93,3,1,8,0.00
2013-5-2,72.7,63.5,57.7,62.8,58.6,54.8,90,84,71,30.14,30.00,6,2,11,0.00
2013-5-3,77.1,65.6,54.5,65.1,58.1,47.8,90,78,48,30.04,29.81,5,1,8,0.00
2013-5-4,65.5,61.7,58.9,59.8,56.3,52.8,91,82,74,29.90,29.80,10,5,13,0.00
2013-5-5,63.8,60.8,59.3,56.4,54.8,53.5,87,81,73,29.99,29.87,6,3,9,0.00
2013-5-6,64.7,60.7,58.1,59.7,57.5,55.2,96,89,74,30.03,29.95,12,4,14,0.11
2013-5-7,70.6,63.0,58.5,58.1,56.3,52.9,90,79,56,30.11,30.02,4,1,7,0.01
2013-5-8,69.9,63.0,57.3,59.6,57.0,54.4,90,81,67,30.13,30.10,8,2,12,0.02
2013-5-9,67.8,61.7,55.6,59.0,56.0,51.6,89,82,72,30.13,30.07,2,1,5,0.00
2013-5-10,71.6,64.0,58.2,62.1,58.4,54.4,90,82,70,30.12,30.04,5,1,11,0.00
2013-5-11,68.6,63.7,60.8,62.3,60.3,58.2,95,89,78,30.11,30.01,7,2,13,0.00
2013-5-12,69.2,64.0,60.8,63.8,61.6,59.7,96,92,80,30.08,29.93,7,2,12,0.00
2013-5-13,74.9,67.3,60.7,68.3,62.5,58.7,94,85,75,29.99,29.89,8,2,13,0.01
2013-5-14,70.8,64.8,59.9,62.2,59.4,56.3,91,83,73,30.01,29.93,6,2,9,0.00
2013-5-15,65.8,62.1,60.0,58.2,56.5,54.7,88,82,76,30.07,30.00,5,2,9,0.00
2013-5-16,68.0,63.6,61.1,60.2,57.3,54.8,86,80,74,30.01,29.94,4,2,7,0.00
2013-5-17,71.3,64.1,61.3,61.0,58.5,55.7,88,82,70,30.04,29.94,5,2,9,0.00
2013-5-18,69.4,64.0,60.5,60.6,58.0,55.7,86,81,71,30.07,30.00,4,2,8,0.00
2013-5-19,68.9,64.3,61.2,60.2,58.3,56.2,88,81,73,30.01,29.92,3,1,6,0.00
2013-5-20,73.8,64.9,60.7,63.0,60.0,57.5,91,85,69,29.98,29.92,3,1,7,0.00
2013-5-21,68.6,64.4,62.6,61.8,60.0,58.2,89,86,78,29.97,29.88,4,2,6,0.00
2013-5-22,66.5,63.8,62.2,59.1,57.6,56.2,87,80,74,29.89,29.82,6,3,8,0.00
2013-5-23,66.5,62.8,59.8,58.1,55.9,54.0,83,78,71,29.96,29.86,9,3,11,0.00
2013-5-24,64.1,61.7,59.4,56.6,55.0,53.0,84,79,74,30.03,29.94,6,2,9,0.00
2013-5-25,69.7,61.5,54.2,59.7,54.5,49.3,84,78,68,30.06,30.01,5,1,7,0.00
2013-5-26,65.0,61.8,58.8,57.4,55.6,53.3,85,80,73,30.09,30.02,6,2,9,0.00
2013-5-27,67.9,62.6,56.4,61.2,57.1,52.6,88,82,76,30.04,29.90,4,1,7,0.00
2013-5-28,72.6,65.2,62.1,62.7,59.1,56.7,88,81,69,29.92,29.79,5,2,8,0.00
2013-5-29,72.7,65.8,61.7,63.9,60.7,58.5,90,84,72,29.84,29.76,7,2,8,0.00
2013-5-30,68.8,64.9,61.4,62.0,59.9,57.3,88,84,78,29.91,29.79,6,3,10,0.00
2013-5-31,73.8,65.8,61.8,63.0,60.2,58.1,90,82,68,29.93,29.84,5,1,10,0.00
2013-6-1,73.8,66.3,63.1,64.8,61.4,59.6,89,84,72,29.88,29.80,4,1,7,0.00
2013-6-2,65.6,63.5,62.6,60.8,59.6,57.5,92,87,81,29.87,29.80,5,2,11,0.00
2013-6-3,67.6,63.9,61.8,60.2,58.7,57.1,89,83,75,29.92,29.83,6,3,9,0.00
2013-6-4,72.0,65.3,62.1,61.4,58.5,56.9,85,79,66,29.99,29.92,8,2,11,0.00
2013-6-5,71.6,65.4,61.5,61.7,59.4,57.5,89,81,71,30.02,29.93,11,4,13,0.00
2013-6-6,69.9,63.6,60.1,62.0,58.9,56.8,89,85,74,29.98,29.91,7,2,9,0.00
2013-6-7,66.9,62.5,60.6,61.2,58.6,57.1,90,87,81,29.94,29.82,4,1,6,0.00
2013-6-8,64.5,61.6,60.5,59.6,58.3,57.5,92,89,84,29.94,29.82,6,2,7,0.00
2013-6-9,64.2,61.9,60.3,60.0,58.1,56.4,92,88,81,29.96,29.91,5,1,7,0.00
2013-6-10,74.3,65.8,60.6,62.1,58.9,56.4,89,79,64,29.98,29.92,5,1,7,0.00
2013-6-11,72.6,64.9,59.5,65.0,60.6,56.9,91,86,75,29.97,29.91,10,2,11,0.00
2013-6-12,71.3,64.7,61.6,63.6,60.2,58.9,92,86,76,30.05,29.95,3,1,5,0.00
2013-6-13,73.3,65.7,62.8,62.7,60.2,58.8,88,83,68,30.04,29.93,4,1,7,0.00
2013-6-14,67.1,63.0,61.0,60.1,58.2,56.1,90,84,77,29.95,29.89,6,3,8,0.00
2013-6-15,70.6,64.2,60.2,60.4,57.6,55.8,88,80,68,30.00,29.92,4,1,7,0.00
2013-6-16,73.9,66.5,62.3,61.5,59.0,56.1,89,77,63,30.06,29.97,6,1,10,0.00
2013-6-17,72.7,65.5,62.0,63.7,60.6,58.9,91,84,70,30.01,29.92,2,0,5,0.00
2013-6-18,68.8,64.5,61.8,62.8,60.4,58.8,91,87,79,29.95,29.87,4,1,6,0.00
2013-6-19,75.0,66.6,62.2,63.9,60.4,57.0,89,81,67,29.90,29.82,2,1,7,0.00
2013-6-20,75.1,66.7,62.0,65.9,61.6,59.0,90,84,72,29.89,29.82,4,1,7,0.00
2013-6-21,69.5,65.4,61.8,63.3,61.1,58.6,92,86,79,29.93,29.85,4,2,7,0.00
2013-6-22,70.6,65.2,62.9,62.3,60.1,58.3,91,84,75,29.95,29.85,7,2,7,0.00
2013-6-23,67.9,64.6,62.1,60.9,58.8,57.3,87,82,74,29.91,29.83,6,2,8,0.00
2013-6-24,71.3,65.0,61.3,63.0,60.8,57.5,94,86,73,29.97,29.86,5,1,8,0.05
2013-6-25,71.0,66.4,63.5,65.4,62.8,59.7,92,88,82,30.03,29.92,10,3,13,0.00
2013-6-26,71.9,66.8,64.3,65.8,63.7,61.9,93,90,79,30.01,29.92,6,1,10,0.00
2013-6-27,70.3,66.2,63.6,66.2,63.8,62.2,96,92,86,30.05,29.99,3,1,5,0.00
2013-6-28,73.2,67.8,63.7,67.5,65.0,62.5,96,91,82,30.02,29.89,5,1,7,0.00
2013-6-29,72.3,68.2,64.5,68.2,65.7,63.3,97,92,83,29.89,29.76,7,1,8,0.00
2013-6-30,74.1,68.6,65.2,69.5,66.0,63.4,95,91,84,29.83,29.73,7,2,11,0.01
2013-7-1,76.4,69.2,66.3,69.0,66.2,64.5,95,90,78,29.90,29.83,3,1,5,0.00
2013-7-2,69.3,67.6,66.6,66.0,65.1,63.9,96,92,87,30.02,29.89,4,1,7,0.00
2013-7-3,71.1,67.5,65.3,67.6,64.9,62.9,95,91,85,29.95,29.83,5,2,8,0.00
2013-7-4,75.7,67.4,64.3,67.1,63.5,61.8,93,87,73,29.86,29.79,4,1,6,0.00
2013-7-5,72.7,67.4,64.6,65.8,63.2,61.6,90,87,78,29.87,29.80,5,1,7,0.00
2013-7-6,71.1,67.1,66.0,66.6,63.4,62.5,90,88,84,29.85,29.78,2,0,5,0.00
2013-7-7,74.5,68.8,65.6,67.2,64.5,62.4,91,86,77,29.88,29.79,8,2,12,0.00
2013-7-8,72.1,67.4,63.9,66.9,64.2,61.8,93,90,83,29.95,29.87,13,2,15,0.00
2013-7-9,74.6,68.4,64.4,67.7,64.7,61.9,94,88,77,30.03,29.92,4,1,7,0.00
2013-7-10,71.6,68.9,67.6,67.5,66.1,65.1,94,91,87,30.00,29.92,4,1,7,0.00
2013-7-11,71.0,68.7,67.6,67.6,65.8,64.9,92,91,89,29.99,29.91,4,1,7,0.00
2013-7-12,78.3,70.3,67.4,69.8,66.3,64.1,92,87,74,29.95,29.87,7,1,11,0.00
2013-7-13,75.2,69.5,66.6,67.6,64.7,63.3,89,85,73,29.97,29.88,6,1,9,0.00
2013-7-14,78.0,70.3,66.7,69.4,65.7,63.0,91,85,73,29.95,29.85,3,1,5,0.00
2013-7-15,79.1,70.2,66.3,69.4,65.6,63.3,91,85,70,29.89,29.82,8,2,11,0.00
2013-7-16,74.5,68.2,62.7,66.8,63.4,60.0,92,85,76,30.00,29.87,8,2,12,0.00
2013-7-17,72.8,67.3,59.4,66.4,62.8,57.4,94,86,78,30.03,29.97,10,3,14,0.00
2013-7-18,75.6,67.3,60.8,66.0,63.0,58.8,94,86,71,30.02,29.88,9,2,12,0.01
2013-7-20,67.8,65.5,64.3,63.8,62.4,61.6,91,89,86,29.91,29.83,3,1,6,0.00
2013-7-21,68.1,66.3,65.3,64.4,63.1,62.3,92,89,87,29.95,29.82,2,1,7,0.00
2013-7-22,75.2,68.9,64.5,68.6,64.9,62.0,92,87,80,29.99,29.93,2,0,5,0.00
2013-7-23,73.7,68.4,65.5,66.8,64.4,63.1,92,87,77,30.05,29.95,8,2,14,0.00
2013-7-24,68.9,66.0,63.2,64.2,63.0,61.3,94,90,85,30.00,29.92,8,4,13,0.00
2013-7-25,74.3,66.5,63.8,65.9,62.7,61.4,93,88,74,30.03,29.95,7,2,12,0.00
2013-7-26,73.5,66.9,64.9,68.4,63.9,62.5,93,90,82,30.10,30.00,7,2,11,0.00
2013-7-27,71.2,65.8,63.7,66.2,63.0,61.3,94,91,83,30.03,29.91,3,0,5,0.00
2013-7-28,70.6,64.4,61.7,65.2,61.3,59.3,95,90,80,29.95,29.91,3,1,5,0.00
2013-7-29,72.0,65.1,61.7,62.5,60.0,58.6,90,84,72,30.06,29.94,6,1,8,0.00
2013-7-30,71.9,65.7,61.4,63.2,60.3,58.1,90,83,74,30.14,30.06,9,2,10,0.00
2013-7-31,73.4,64.9,60.0,64.2,60.2,57.4,92,85,71,30.13,30.02,5,2,9,0.00
2013-8-1,73.2,65.9,63.0,64.0,61.0,59.1,90,84,73,30.04,29.93,5,2,8,0.00
2013-8-2,72.2,66.3,62.5,63.7,61.1,59.4,90,84,74,29.99,29.93,3,1,6,0.00
2013-8-3,73.5,66.3,62.9,65.5,61.4,59.0,89,84,74,30.02,29.96,3,1,5,0.00
2013-8-4,73.9,66.6,63.2,64.3,61.5,59.6,91,84,72,30.03,29.95,5,2,10,0.00
2013-8-5,72.6,64.8,61.5,64.2,60.8,59.5,93,87,75,30.03,29.96,5,1,9,0.00
2013-8-6,71.2,65.4,62.4,63.3,60.6,58.6,91,85,74,30.07,29.99,8,2,11,0.00
2013-8-7,73.7,66.1,61.9,64.1,61.0,59.2,91,84,71,30.10,30.00,9,2,11,0.00
2013-8-8,74.6,64.4,58.6,64.6,60.6,56.6,94,88,71,30.03,29.93,9,1,11,0.00
2013-8-9,70.4,64.6,61.2,62.8,60.1,58.6,92,85,75,29.99,29.94,2,0,6,0.00
2013-8-10,70.9,64.8,61.4,61.7,59.5,57.3,89,83,72,30.06,29.98,3,1,6,0.00
2013-8-11,74.2,66.5,63.0,63.4,61.1,59.0,90,83,69,30.02,29.92,5,1,9,0.00
2013-8-12,71.4,65.9,62.6,63.5,61.3,59.6,90,85,74,30.00,29.92,4,0,5,0.00
2013-8-13,71.3,65.0,62.7,65.2,61.7,60.6,93,89,80,30.00,29.91,3,0,9,0.00
2013-8-14,69.7,64.5,62.8,65.0,61.6,60.3,93,90,85,29.95,29.87,3,0,5,0.00
2013-8-15,69.3,65.1,62.6,65.3,62.6,61.2,95,92,85,29.96,29.91,3,1,4,0.00
2013-8-16,76.3,68.2,62.9,68.6,64.4,60.8,94,88,76,29.99,29.92,6,1,8,0.00
2013-8-17,69.1,66.1,64.0,64.9,63.2,61.4,94,91,85,29.97,29.84,10,2,12,0.00
2013-8-18,68.1,65.5,63.5,63.4,62.4,61.4,93,90,83,29.93,29.85,5,1,6,0.00
2013-8-19,72.6,66.8,65.1,65.4,63.0,62.0,92,88,77,29.98,29.89,4,1,5,0.00
2013-8-20,70.3,66.4,63.8,64.9,63.0,61.4,92,89,83,29.95,29.85,11,4,13,0.00
2013-8-21,69.9,65.3,61.3,64.3,62.1,59.3,94,90,81,29.94,29.85,9,3,12,0.00
2013-8-22,72.8,65.8,60.8,64.6,61.6,58.8,93,87,73,29.94,29.83,7,2,11,0.00
2013-8-23,69.2,65.2,60.8,64.8,62.0,58.8,94,90,84,29.89,29.76,7,2,10,0.01
2013-8-24,71.6,63.3,61.2,65.1,61.0,59.7,96,92,80,29.91,29.80,6,1,8,0.00
2013-8-25,70.4,63.6,59.3,64.7,61.1,57.9,96,92,82,29.94,29.87,7,1,11,0.00
2013-8-26,71.5,66.6,62.3,66.4,63.0,60.2,94,88,74,29.94,29.83,4,1,9,0.00
2013-8-27,77.8,68.6,64.9,70.1,64.6,62.2,93,87,74,29.86,29.79,6,1,9,0.00
2013-8-28,71.2,67.4,63.7,66.4,63.8,61.9,94,88,80,29.90,29.79,7,2,10,0.00
2013-8-29,75.7,68.9,63.7,70.2,64.6,61.6,94,86,74,29.93,29.88,3,1,8,0.00
2013-8-30,84.7,75.8,67.6,70.0,67.1,63.3,89,75,60,29.98,29.90,5,1,9,0.00
2013-8-31,77.5,74.2,72.0,70.5,68.4,67.0,90,82,75,29.97,29.89,5,1,7,0.00
2013-9-1,74.7,71.2,67.0,69.2,67.4,65.2,95,88,81,29.94,29.85,8,2,12,0.00
2013-9-2,71.2,67.4,64.1,67.8,65.5,63.2,97,94,87,29.93,29.82,6,2,9,0.00
2013-9-3,75.3,70.2,65.8,70.2,66.9,64.3,95,89,81,29.92,29.83,5,1,7,0.00
2013-9-4,77.3,71.4,67.6,69.7,66.8,64.7,93,86,70,29.91,29.84,7,2,10,0.00
2013-9-5,76.1,70.6,66.4,68.7,65.8,63.4,90,85,71,29.90,29.83,6,1,9,0.00
2013-9-6,75.8,70.8,66.4,69.9,66.2,63.1,90,85,79,29.88,29.80,6,1,9,0.00
2013-9-7,75.6,69.7,66.0,70.1,66.0,63.0,92,88,82,29.87,29.81,6,1,8,0.00
2013-9-8,70.7,67.0,63.4,66.8,63.8,61.3,93,90,85,29.87,29.77,8,2,12,0.00
2013-9-9,70.2,65.3,62.6,64.9,62.4,60.5,94,90,83,29.84,29.77,7,2,10,0.01
2013-9-10,74.1,66.8,63.1,66.1,62.2,59.2,92,85,76,29.96,29.83,5,1,8,0.00
2013-9-11,71.3,66.3,62.8,64.3,61.6,59.5,92,85,75,30.02,29.94,7,2,9,0.00
2013-9-12,68.8,64.6,59.5,64.8,61.6,57.5,94,90,86,29.95,29.84,7,2,10,0.00
2013-9-13,69.6,63.9,59.6,65.6,61.7,57.8,96,93,86,29.86,29.69,6,1,8,0.01
2013-9-14,69.5,64.4,62.3,65.9,62.8,61.0,97,95,88,29.75,29.65,7,2,11,0.01
2013-9-15,71.5,66.2,63.4,67.1,64.3,61.6,97,94,86,29.79,29.72,8,1,10,0.00
2013-9-16,71.7,66.6,63.5,67.3,63.8,61.5,96,91,81,29.83,29.76,7,2,9,0.01
2013-9-17,71.6,66.0,64.2,64.8,62.7,61.3,94,89,79,29.85,29.76,3,1,5,0.00
2013-9-18,72.2,66.8,64.1,64.2,61.1,59.4,88,82,75,29.83,29.76,5,1,7,0.00
2013-9-19,74.1,67.2,61.8,65.9,62.2,58.8,91,84,74,29.85,29.78,3,0,5,0.00
2013-9-20,68.5,66.7,65.8,64.2,62.3,60.2,91,86,80,29.91,29.83,2,0,5,0.00
2013-9-21,71.6,67.5,63.7,63.0,61.3,58.9,89,81,72,29.93,29.83,9,2,14,0.00
2013-9-22,74.8,66.8,61.6,65.4,60.0,53.0,89,79,65,29.87,29.81,7,1,10,0.00
2013-9-23,74.4,66.9,58.5,66.7,59.4,52.0,83,77,65,29.91,29.82,6,1,7,0.00
2013-9-24,79.1,69.0,60.9,67.8,62.0,52.1,90,78,68,29.94,29.85,3,0,6,0.00
2013-9-25,71.2,66.8,63.1,63.6,61.7,58.9,90,84,76,29.87,29.73,8,3,10,0.00
2013-9-26,74.4,66.2,60.3,61.9,58.0,52.7,83,75,64,29.90,29.74,10,3,15,0.00
2013-9-27,75.0,65.6,56.0,63.3,53.4,40.8,75,65,39,30.00,29.90,7,1,11,0.00
2013-9-28,76.9,67.5,58.0,63.4,52.8,39.4,74,60,42,30.06,29.96,8,1,9,0.00
2013-9-29,74.0,66.5,57.6,66.0,55.2,39.6,86,68,47,30.07,29.98,5,1,8,0.00
2013-9-30,73.9,65.1,57.2,65.9,60.7,53.6,91,86,75,30.01,29.88,4,1,6,0.00
2013-10-1,72.1,65.2,59.1,64.9,60.7,55.9,93,86,78,29.96,29.90,5,2,7,0.00
2013-10-2,71.5,66.2,64.1,62.4,59.9,57.9,85,80,73,29.99,29.91,6,1,7,0.00
2013-10-3,70.6,65.9,63.2,64.2,60.9,58.0,88,84,78,29.95,29.85,4,1,7,0.00
2013-10-4,73.2,67.3,61.2,64.8,61.5,57.1,91,82,71,30.04,29.90,4,1,7,0.00
2013-10-5,79.5,68.6,57.0,66.4,52.6,37.0,92,59,29,30.11,30.02,5,0,7,0.01
2013-10-6,79.9,69.3,59.5,64.2,49.0,26.9,72,50,22,30.08,29.96,6,1,7,0.00
2013-10-7,76.3,66.4,59.2,68.2,55.5,38.5,89,69,43,29.99,29.92,5,1,7,0.00
2013-10-8,67.2,63.2,59.5,60.0,56.6,53.2,89,79,71,29.95,29.85,7,1,9,0.00
2013-10-9,64.1,60.9,57.8,56.4,53.8,50.7,90,78,71,29.85,29.76,11,5,16,0.16
2013-10-10,67.8,59.5,51.2,56.0,51.9,47.5,88,76,63,30.04,29.83,5,1,7,0.01
2013-10-11,67.6,60.6,53.0,59.6,54.9,48.6,88,82,73,30.07,29.96,10,2,12,0.00
2013-10-12,70.6,62.2,54.6,62.7,57.7,52.2,92,86,75,30.00,29.92,5,1,8,0.00
2013-10-13,68.2,62.4,57.4,59.5,56.7,53.2,89,82,73,30.05,29.95,3,0,6,0.00
2013-10-14,70.1,61.7,53.2,64.0,57.8,50.9,93,87,79,30.05,29.91,8,2,10,0.00
2013-10-15,73.7,64.3,54.4,67.1,58.7,50.3,93,82,70,29.98,29.89,3,0,8,0.01
2013-10-16,76.0,66.9,57.4,64.2,47.5,34.3,79,51,28,30.07,29.98,4,1,7,0.00
2013-10-17,75.3,65.4,57.1,61.5,47.6,33.3,76,54,36,30.05,29.94,4,0,5,0.00
2013-10-18,69.6,63.2,54.8,63.6,55.2,43.8,87,75,61,30.03,29.94,6,1,9,0.00
2013-10-19,66.3,61.3,53.9,62.0,57.1,47.5,93,86,73,30.04,29.97,6,1,10,0.00
2013-10-20,70.1,62.0,54.8,62.5,58.4,53.4,95,88,73,30.02,29.92,4,0,7,0.00
2013-10-21,66.2,61.2,55.5,60.0,57.5,53.2,93,88,80,30.02,29.93,7,2,9,0.00
2013-10-22,66.3,61.7,57.9,60.5,58.2,55.6,93,88,81,30.03,29.93,7,2,10,0.01
2013-10-23,69.2,63.1,60.8,59.8,57.4,55.9,88,82,70,30.00,29.93,5,0,7,0.00
2013-10-24,69.7,63.0,59.3,60.7,57.0,55.1,86,81,72,30.07,29.98,9,1,10,0.00
2013-10-25,66.8,62.0,58.5,60.5,57.4,54.8,91,85,77,30.14,30.02,7,1,10,0.00
2013-10-26,62.9,59.7,55.5,60.5,57.9,53.5,95,93,91,30.12,29.98,7,2,11,0.00
2013-10-27,66.5,61.2,56.6,62.2,58.7,55.5,97,91,83,30.00,29.85,6,1,7,0.01
2013-10-28,64.7,61.3,59.3,57.8,55.0,52.1,91,80,73,29.96,29.86,7,2,11,0.00
2013-10-29,66.9,59.1,52.4,56.5,52.0,47.7,86,78,66,30.04,29.96,2,0,6,0.00
2013-10-30,68.6,59.3,52.3,59.2,52.6,46.8,84,79,69,30.09,30.01,4,1,7,0.00
2013-10-31,67.4,59.7,51.5,58.4,52.3,46.1,85,77,67,30.11,30.00,6,1,7,0.00
2013-11-1,71.4,61.8,52.9,59.7,50.4,40.9,75,66,52,30.12,29.95,5,1,9,0.00
2013-11-2,69.6,63.6,56.9,63.5,53.2,35.2,91,71,35,30.01,29.91,4,1,8,0.00
2013-11-3,66.0,61.7,56.4,57.9,55.2,53.2,89,79,74,29.95,29.85,5,1,8,0.00
2013-11-4,65.0,60.4,54.5,55.4,52.7,49.8,84,76,70,29.97,29.82,5,1,7,0.01
2013-11-5,68.8,60.1,51.9,60.7,49.3,26.6,88,70,30,30.14,29.97,7,1,9,0.00
2013-11-6,67.7,61.1,51.5,58.9,40.9,23.7,78,50,30,30.22,30.10,5,1,8,0.00
2013-11-7,71.4,63.5,54.1,62.9,44.8,26.5,78,52,29,30.12,30.00,5,1,8,0.00
2013-11-8,69.6,61.6,53.9,61.3,51.9,34.9,92,72,39,30.06,29.95,2,0,4,0.00
2013-11-9,68.5,58.4,50.5,58.7,53.8,47.1,94,85,68,30.10,30.02,4,0,5,0.00
2013-11-10,75.2,61.1,52.8,60.9,52.5,36.0,88,75,24,30.16,30.06,4,0,8,0.00
2013-11-11,67.5,59.8,50.1,60.8,53.5,42.2,90,80,52,30.15,30.04,6,1,9,0.00
2013-11-12,67.0,61.1,54.0,61.0,56.1,49.6,91,84,72,30.19,30.07,4,0,9,0.00
2013-11-13,70.9,64.3,55.8,63.7,53.1,45.3,83,68,48,30.06,29.90,5,1,8,0.00
2013-11-14,77.1,65.9,58.7,61.1,53.2,41.6,93,65,41,29.94,29.80,4,0,7,0.00
2013-11-15,66.1,61.6,57.9,59.0,57.4,54.4,94,86,78,29.81,29.70,5,2,12,0.00
2013-11-16,64.9,60.6,57.4,56.7,52.7,50.0,91,76,62,29.97,29.78,5,2,7,0.00
2013-11-17,68.0,60.1,54.7,57.9,53.7,50.0,88,80,70,30.12,29.97,3,0,6,0.00
2013-11-18,66.6,58.6,53.6,59.5,54.0,50.6,90,85,77,30.18,30.07,7,2,10,0.00
2013-11-20,65.5,61.8,59.5,58.3,57.6,56.6,95,86,76,30.08,29.92,8,1,8,0.05
2013-11-21,62.0,59.7,55.8,60.0,58.0,54.1,97,94,90,29.93,29.87,6,2,10,0.21
2013-11-22,59.4,55.4,52.6,54.1,49.6,43.0,94,81,67,29.98,29.86,1,0,7,0.01
2013-11-23,66.9,57.2,51.2,52.8,47.3,42.7,78,70,53,30.11,29.98,3,0,7,0.00
2013-11-24,65.7,57.0,50.1,56.5,49.1,42.2,81,75,67,30.22,30.11,3,0,7,0.00
2013-11-25,65.4,57.3,49.5,57.2,49.9,42.6,86,76,65,30.27,30.18,6,1,10,0.00
2013-11-26,65.8,59.4,50.8,58.5,48.8,39.7,80,69,42,30.22,30.06,7,1,8,0.00
2013-11-27,69.8,60.8,54.5,56.1,49.2,42.2,84,66,55,30.06,29.90,5,0,5,0.00
2013-11-28,66.3,58.8,52.3,58.2,49.9,39.4,80,73,56,30.08,29.92,3,0,6,0.00
2013-11-29,62.3,58.2,55.3,59.0,54.5,50.8,92,88,79,30.20,30.08,4,0,5,0.16
2013-11-30,66.1,59.6,54.1,59.8,53.9,49.6,87,82,76,30.20,30.09,6,1,8,0.00
2013-12-1,67.7,58.3,53.1,60.5,52.5,47.1,87,81,71,30.23,30.13,2,0,5,0.00
2013-12-5,67.9,57.0,50.8,58.9,43.9,40.6,73,62,55,30.14,30.03,4,1,8,0.00
2013-12-6,58.9,52.5,46.8,45.6,41.1,38.4,74,65,57,30.22,30.14,6,1,8,0.00
2013-12-7,59.7,52.8,46.8,53.9,44.5,38.7,88,73,59,30.17,30.05,11,2,18,0.03
2013-12-8,57.5,49.4,42.8,44.1,39.5,36.1,78,69,53,30.25,30.15,4,0,8,0.00
2013-12-9,62.2,49.5,40.1,36.6,24.7,7.4,75,40,17,30.32,30.23,5,0,8,0.00
2013-12-10,61.3,51.8,43.7,46.3,30.5,12.6,63,45,27,30.30,30.12,5,1,9,0.00
2013-12-11,63.1,53.9,46.7,53.8,41.5,23.9,85,64,39,30.20,30.13,4,0,6,0.00
2013-12-12,65.3,55.5,48.6,56.5,47.4,33.7,89,75,40,30.26,30.18,4,0,7,0.00
2013-12-13,63.7,53.2,46.1,54.9,47.3,39.5,90,80,70,30.28,30.17,1,0,5,0.00
2013-12-14,64.4,54.9,46.2,56.3,45.8,30.4,94,74,40,30.33,30.22,5,1,7,0.01
2013-12-15,68.3,59.4,50.8,56.7,43.5,26.6,77,58,29,30.26,30.08,3,0,6,0.00
2013-12-16,70.5,61.6,53.9,57.2,46.0,32.9,74,57,33,30.15,30.06,3,0,7,0.00
2013-12-17,71.1,62.1,54.4,57.4,48.9,38.6,87,63,38,30.15,30.03,5,0,8,0.00
2013-12-18,66.4,59.9,56.5,57.9,54.3,49.2,91,82,66,30.03,29.89,9,2,12,0.00
2013-12-19,56.6,52.8,45.9,51.7,48.4,42.5,90,85,78,29.92,29.77,8,2,12,0.06
2013-12-20,59.2,51.9,44.1,52.1,46.8,41.4,90,83,76,30.00,29.82,4,1,8,0.00
2013-12-21,60.1,53.5,47.9,52.6,47.5,42.7,86,80,73,30.13,29.97,4,1,7,0.00
2013-12-22,64.0,54.7,47.1,55.2,49.5,43.7,89,83,73,30.29,30.13,4,1,9,0.00
2013-12-23,67.6,57.1,48.2,56.1,48.0,42.3,88,72,57,30.33,30.22,6,1,10,0.00
2013-12-24,67.3,57.9,50.9,59.1,47.7,37.3,87,69,54,30.23,30.10,4,0,8,0.00
2013-12-25,72.8,61.5,52.4,50.6,39.5,24.8,68,46,20,30.21,30.11,3,0,7,0.00
2013-12-26,72.7,61.2,53.0,52.8,33.7,19.7,62,37,22,30.18,30.07,4,0,8,0.00
2013-12-27,67.9,59.1,50.5,56.2,35.2,20.4,75,42,24,30.17,30.06,4,0,6,0.00
2013-12-28,65.7,57.9,52.1,56.7,45.0,31.1,92,65,33,30.08,29.97,6,1,8,0.00
2013-12-29,66.0,55.0,47.3,58.4,50.0,40.7,94,84,60,30.17,30.04,6,0,8,0.00
2013-12-30,70.1,56.8,46.9,55.8,35.2,21.4,74,46,21,30.29,30.17,3,0,6,0.00
2013-12-31,66.0,54.4,46.3,57.8,43.7,23.4,91,69,37,30.24,30.12,3,0,7,0.00
2014-1-1,60.7,53.8,46.3,56.2,50.2,41.4,92,88,83,30.18,30.07,6,1,9,0.01
2014-1-2,59.2,53.7,48.1,56.6,50.4,41.2,95,89,76,30.14,30.03,4,1,7,0.01